Time,TemperatureF,DewpointF,PressureIn,WindDirection,WindDirectionDegrees,WindSpeedMPH,WindSpeedGustMPH,Humidity,HourlyPrecipIn,Conditions,Clouds,dailyrainin,SoftwareType,DateUTC
2014-04-24 00:02:00,45.6,39.0,30.03,NNE,18,0.0,2.0,77,0.00,,,0.00,weatherlink.com 1.10,2014-04-24 04:02:00,
2014-04-24 00:17:00,44.8,39.0,30.02,North,356,0.0,1.0,79,0.00,,,0.00,weatherlink.com 1.10,2014-04-24 04:17:00,
2014-04-24 00:32:00,44.2,38.0,30.03,NE,56,0.0,2.0,80,0.00,,,0.00,weatherlink.com 1.10,2014-04-24 04:32:00,
2014-04-24 00:47:00,43.3,38.0,30.03,NE,44,2.0,4.0,80,0.00,,,0.00,weatherlink.com 1.10,2014-04-24 04:47:00,
2014-04-24 01:02:00,43.5,38.0,30.03,North,1,5.0,5.0,80,0.00,,,0.00,weatherlink.com 1.10,2014-04-24 05:02:00,
2014-04-24 01:17:00,43.4,38.0,30.02,NNW,333,1.0,2.0,81,0.00,,,0.00,weatherlink.com 1.10,2014-04-24 05:17:00,
2014-04-24 01:32:00,42.7,39.0,30.03,NNE,14,3.0,3.0,85,0.00,,,0.00,weatherlink.com 1.10,2014-04-24 05:32:00,
2014-04-24 01:47:00,42.4,38.0,30.02,NNE,30,3.0,4.0,85,0.00,,,0.00,weatherlink.com 1.10,2014-04-24 05:47:00,
2014-04-24 02:02:00,42.2,38.0,30.02,North,10,2.0,3.0,86,0.00,,,0.00,weatherlink.com 1.10,2014-04-24 06:02:00,
2014-04-24 02:17:00,41.8,38.0,30.02,NW,325,1.0,3.0,87,0.00,,,0.00,weatherlink.com 1.10,2014-04-24 06:17:00,
2014-04-24 02:32:00,41.4,38.0,30.02,NNE,23,1.0,3.0,87,0.00,,,0.00,weatherlink.com 1.10,2014-04-24 06:32:00,
2014-04-24 02:47:00,41.0,37.0,30.02,NE,37,0.0,3.0,87,0.00,,,0.00,weatherlink.com 1.10,2014-04-24 06:47:00,
2014-04-24 03:02:00,39.9,37.0,30.02,NE,37,0.0,1.0,88,0.00,,,0.00,weatherlink.com 1.10,2014-04-24 07:02:00,
2014-04-24 03:17:00,38.9,36.0,30.02,SW,219,1.0,1.0,88,0.00,,,0.00,weatherlink.com 1.10,2014-04-24 07:17:00,
2014-04-24 03:32:00,38.3,35.0,30.02,SW,217,1.0,2.0,89,0.00,,,0.00,weatherlink.com 1.10,2014-04-24 07:32:00,
2014-04-24 03:47:00,38.2,36.0,30.03,SSE,153,1.0,2.0,90,0.00,,,0.00,weatherlink.com 1.10,2014-04-24 07:47:00,
2014-04-24 04:02:00,38.5,36.0,30.03,South,181,3.0,4.0,89,0.00,,,0.00,weatherlink.com 1.10,2014-04-24 08:02:00,
2014-04-24 04:17:00,38.3,36.0,30.04,SSE,162,2.0,4.0,90,0.00,,,0.00,weatherlink.com 1.10,2014-04-24 08:17:00,
2014-04-24 04:32:00,38.0,36.0,30.04,South,178,3.0,4.0,91,0.00,,,0.00,weatherlink.com 1.10,2014-04-24 08:32:00,
2014-04-24 04:47:00,37.7,35.0,30.04,SW,225,1.0,3.0,91,0.00,,,0.00,weatherlink.com 1.10,2014-04-24 08:47:00,
2014-04-24 05:02:00,37.8,36.0,30.05,SSE,166,3.0,4.0,92,0.00,,,0.00,weatherlink.com 1.10,2014-04-24 09:02:00,
2014-04-24 05:17:00,37.6,35.0,30.05,SSE,159,0.0,3.0,91,0.00,,,0.00,weatherlink.com 1.10,2014-04-24 09:17:00,
2014-04-24 05:32:00,37.5,35.0,30.05,SSE,163,2.0,4.0,90,0.00,,,0.00,weatherlink.com 1.10,2014-04-24 09:32:00,